createdAt,value
2019-02-12T00:01:14.033Z,9.70
2019-02-12T00:06:22.221Z,9.60
2019-02-12T00:11:29.931Z,9.70
2019-02-12T00:16:38.218Z,10.00
2019-02-12T00:21:44.387Z,10.00
2019-02-12T00:26:52.210Z,9.90
2019-02-12T00:31:58.179Z,9.80
2019-02-12T00:37:04.319Z,9.90
2019-02-12T00:42:11.498Z,9.80
2019-02-12T00:47:17.866Z,9.80
2019-02-12T00:52:27.231Z,9.60
2019-02-12T00:57:36.050Z,9.50
2019-02-12T01:02:44.087Z,9.50
2019-02-12T01:07:51.852Z,9.60
2019-02-12T01:13:00.854Z,9.50
2019-02-12T01:18:09.166Z,9.50
2019-02-12T01:23:16.992Z,9.60
2019-02-12T01:28:26.307Z,9.50
2019-02-12T01:33:34.523Z,9.30
2019-02-12T01:38:41.301Z,9.10
2019-02-12T01:43:48.199Z,9.20
2019-02-12T01:48:55.028Z,9.00
2019-02-12T01:54:02.842Z,9.20
2019-02-12T01:59:10.175Z,9.00
2019-02-12T02:04:17.215Z,9.00
2019-02-12T02:09:25.224Z,9.00
2019-02-12T02:14:31.779Z,8.90
2019-02-12T02:19:39.106Z,8.70
2019-02-12T02:24:46.896Z,8.70
2019-02-12T02:29:55.642Z,8.80
2019-02-12T02:35:03.348Z,8.90
2019-02-12T02:40:11.482Z,8.90
2019-02-12T02:45:18.615Z,8.80
2019-02-12T02:50:24.808Z,8.80
2019-02-12T02:55:32.390Z,8.70
2019-02-12T03:00:39.116Z,8.70
2019-02-12T03:05:45.318Z,8.70
2019-02-12T03:10:53.382Z,8.60
2019-02-12T03:16:01.251Z,8.50
2019-02-12T03:21:07.362Z,8.60
2019-02-12T03:26:14.103Z,8.60
2019-02-12T03:31:21.206Z,8.50
2019-02-12T03:36:27.125Z,8.60
2019-02-12T03:41:34.703Z,8.60
2019-02-12T03:46:41.028Z,8.60
2019-02-12T03:51:47.196Z,8.50
2019-02-12T03:56:54.003Z,8.60
2019-02-12T04:02:01.376Z,8.50
2019-02-12T04:07:08.303Z,8.40
2019-02-12T04:12:14.443Z,8.30
2019-02-12T04:17:21.093Z,8.30
2019-02-12T04:22:28.814Z,8.30
2019-02-12T04:27:35.527Z,8.20
2019-02-12T04:32:43.162Z,8.20
2019-02-12T04:37:52.612Z,8.20
2019-02-12T04:42:59.144Z,8.20
2019-02-12T04:48:05.497Z,8.00
2019-02-12T04:53:15.049Z,8.00
2019-02-12T04:58:23.071Z,7.90
2019-02-12T05:03:29.816Z,7.80
2019-02-12T05:09:11.574Z,7.60
2019-02-12T05:14:18.615Z,7.50
2019-02-12T05:19:25.078Z,7.50
2019-02-12T05:24:31.626Z,7.40
2019-02-12T05:29:38.560Z,7.40
2019-02-12T05:34:46.634Z,7.50
2019-02-12T05:39:54.605Z,7.40
2019-02-12T05:45:03.231Z,7.40
2019-02-12T05:50:12.522Z,7.40
2019-02-12T05:55:20.278Z,7.40
2019-02-12T06:00:31.115Z,7.20
2019-02-12T06:05:37.719Z,7.10
2019-02-12T06:10:44.348Z,7.20
2019-02-12T06:15:51.753Z,7.30
2019-02-12T06:20:57.946Z,7.30
2019-02-12T06:26:04.337Z,7.40
2019-02-12T06:31:12.886Z,7.40
2019-02-12T06:36:20.159Z,7.40
2019-02-12T06:41:27.781Z,7.50
2019-02-12T06:46:34.261Z,7.60
2019-02-12T06:51:42.423Z,7.60
2019-02-12T06:56:49.127Z,7.60
2019-02-12T07:02:33.511Z,7.70
2019-02-12T07:08:19.982Z,7.60
2019-02-12T07:13:51.562Z,7.60
2019-02-12T07:19:41.697Z,7.70
2019-02-12T07:25:30.927Z,7.60
2019-02-12T07:31:13.618Z,7.80
2019-02-12T07:37:15.927Z,7.90
2019-02-12T07:42:46.478Z,8.00
2019-02-12T07:48:10.654Z,8.20
2019-02-12T07:53:42.978Z,8.40
2019-02-12T07:59:14.075Z,8.60
2019-02-12T08:04:57.984Z,8.70
2019-02-12T08:10:28.825Z,8.80
2019-02-12T08:16:01.190Z,9.00
2019-02-12T08:21:54.115Z,9.10
2019-02-12T08:27:46.282Z,9.30
2019-02-12T08:33:35.083Z,9.40
2019-02-12T08:39:18.702Z,9.40
2019-02-12T08:44:45.037Z,9.50
2019-02-12T08:50:45.625Z,9.60
2019-02-12T08:56:25.531Z,9.70
2019-02-12T09:01:52.543Z,9.80
2019-02-12T09:07:36.288Z,10.10
2019-02-12T09:13:15.902Z,10.40
2019-02-12T09:19:04.966Z,10.60
2019-02-12T09:25:01.825Z,11.00
2019-02-12T09:30:46.535Z,11.10
2019-02-12T09:36:26.144Z,11.50
2019-02-12T09:42:35.851Z,11.70
2019-02-12T09:48:42.126Z,11.90
2019-02-12T09:54:29.121Z,12.10
2019-02-12T10:00:32.231Z,12.60
2019-02-12T10:06:09.855Z,12.60
2019-02-12T10:12:01.085Z,12.90
2019-02-12T10:17:58.371Z,13.10
2019-02-12T10:24:00.526Z,13.60
2019-02-12T10:29:29.102Z,14.00
2019-02-12T10:34:36.996Z,13.90
2019-02-12T10:39:44.918Z,14.40
2019-02-12T10:44:54.039Z,14.70
2019-02-12T10:50:01.305Z,14.90
2019-02-12T10:55:08.023Z,15.20
2019-02-12T11:00:15.478Z,15.80
2019-02-12T11:05:21.652Z,15.90
2019-02-12T11:10:29.619Z,15.80
2019-02-12T11:15:38.789Z,15.90
2019-02-12T11:20:45.919Z,16.20
2019-02-12T11:25:56.498Z,16.30
2019-02-12T11:31:05.991Z,17.00
2019-02-12T11:36:13.788Z,16.90
2019-02-12T11:41:21.505Z,17.10
2019-02-12T11:46:29.070Z,17.10
2019-02-12T11:51:36.097Z,17.00
2019-02-12T11:56:44.171Z,17.20
2019-02-12T12:01:54.070Z,17.50
2019-02-12T12:07:00.170Z,17.90
2019-02-12T12:12:07.046Z,17.90
2019-02-12T12:17:13.997Z,17.10
2019-02-12T12:22:22.004Z,17.60
2019-02-12T12:27:29.706Z,17.00
2019-02-12T12:32:37.645Z,16.70
2019-02-12T12:37:45.177Z,16.50
2019-02-12T12:42:52.910Z,16.70
2019-02-12T12:48:00.240Z,17.20
2019-02-12T12:53:07.319Z,18.20
2019-02-12T12:58:18.126Z,18.10
2019-02-12T13:03:26.322Z,18.20
2019-02-12T13:08:35.334Z,18.60
2019-02-12T13:13:43.426Z,17.00
2019-02-12T13:18:49.577Z,17.50
2019-02-12T13:23:56.508Z,17.20
2019-02-12T13:29:04.459Z,17.20
2019-02-12T13:34:10.519Z,17.80
2019-02-12T13:39:17.953Z,16.70
2019-02-12T13:44:26.124Z,17.10
2019-02-12T13:49:34.418Z,18.10
2019-02-12T13:54:42.387Z,17.80
2019-02-12T13:59:49.644Z,18.20
2019-02-12T14:04:56.183Z,17.80
2019-02-12T14:10:04.298Z,18.40
2019-02-12T14:15:13.146Z,18.60
2019-02-12T14:20:21.287Z,18.30
2019-02-12T14:25:29.735Z,19.00
2019-02-12T14:30:37.105Z,18.70
2019-02-12T14:35:45.222Z,18.70
2019-02-12T14:40:54.209Z,18.80
2019-02-12T14:46:02.042Z,19.60
2019-02-12T14:51:09.169Z,19.80
2019-02-12T14:56:15.507Z,20.00
2019-02-12T15:01:23.585Z,20.00
2019-02-12T15:06:31.208Z,19.70
2019-02-12T15:11:38.105Z,20.20
2019-02-12T15:16:44.048Z,19.80
2019-02-12T15:21:52.666Z,19.30
2019-02-12T15:26:59.623Z,20.10
2019-02-12T15:32:08.404Z,19.50
2019-02-12T15:37:16.507Z,19.00
2019-02-12T15:43:05.660Z,19.60
2019-02-12T15:48:13.654Z,19.30
2019-02-12T15:53:22.466Z,19.50
2019-02-12T15:58:30.308Z,19.70
2019-02-12T16:03:38.212Z,19.50
2019-02-12T16:08:45.056Z,19.00
2019-02-12T16:13:54.724Z,19.30
2019-02-12T16:19:02.641Z,19.20
2019-02-12T16:24:11.589Z,18.50
2019-02-12T16:29:18.802Z,17.60
2019-02-12T16:34:25.634Z,16.80
2019-02-12T16:39:35.266Z,15.80
2019-02-12T16:44:44.493Z,15.70
2019-02-12T16:49:52.404Z,15.40
2019-02-12T16:55:01.450Z,14.90
2019-02-12T17:00:11.436Z,14.60
2019-02-12T17:05:18.632Z,14.30
2019-02-12T17:10:24.677Z,14.40
2019-02-12T17:15:32.490Z,14.20
2019-02-12T17:20:39.810Z,14.10
2019-02-12T17:25:47.815Z,13.60
2019-02-12T17:30:56.127Z,13.30
2019-02-12T17:36:04.299Z,12.80
2019-02-12T17:41:12.049Z,12.50
2019-02-12T17:46:18.672Z,12.10
2019-02-12T17:51:26.519Z,11.90
2019-02-12T17:56:34.095Z,11.80
2019-02-12T18:01:41.235Z,11.70
2019-02-12T18:06:48.813Z,11.40
2019-02-12T18:11:56.114Z,11.10
2019-02-12T18:17:03.722Z,11.10
2019-02-12T18:22:13.460Z,10.80
2019-02-12T18:27:23.618Z,10.60
2019-02-12T18:32:31.278Z,10.60
2019-02-12T18:37:38.683Z,10.50
2019-02-12T18:42:46.783Z,10.20
2019-02-12T18:47:54.359Z,10.00
2019-02-12T18:53:03.363Z,10.10
2019-02-12T18:58:10.648Z,9.80
2019-02-12T19:03:18.780Z,9.90
2019-02-12T19:08:25.344Z,10.00
2019-02-12T19:13:33.339Z,9.70
2019-02-12T19:18:41.460Z,9.70
2019-02-12T19:23:49.519Z,9.70
2019-02-12T19:28:56.856Z,9.60
2019-02-12T19:34:04.111Z,9.70
2019-02-12T19:39:12.206Z,9.90
2019-02-12T19:44:21.941Z,10.00
2019-02-12T19:49:29.632Z,10.00
2019-02-12T19:54:39.593Z,10.20
2019-02-12T19:59:48.790Z,10.40
2019-02-12T20:04:56.282Z,10.20
2019-02-12T20:10:04.974Z,10.10
2019-02-12T20:15:11.958Z,9.80
2019-02-12T20:20:18.495Z,9.60
2019-02-12T20:25:24.561Z,9.50
2019-02-12T20:30:31.326Z,9.80
2019-02-12T20:35:37.714Z,9.80
2019-02-12T20:40:44.419Z,10.00
2019-02-12T20:45:52.679Z,10.10
2019-02-12T20:50:59.920Z,9.40
2019-02-12T20:56:07.128Z,9.30
2019-02-12T21:01:14.963Z,9.30
2019-02-12T21:06:23.487Z,9.40
2019-02-12T21:11:32.283Z,8.90
2019-02-12T21:16:39.212Z,8.80
2019-02-12T21:21:45.482Z,8.60
2019-02-12T21:26:53.458Z,8.70
2019-02-12T21:32:01.388Z,8.70
2019-02-12T21:37:07.804Z,8.20
2019-02-12T21:42:15.865Z,8.20
2019-02-12T21:47:23.798Z,8.00
2019-02-12T21:52:31.910Z,7.70
2019-02-12T21:57:39.520Z,7.50
2019-02-12T22:02:46.697Z,7.50
2019-02-12T22:08:10.816Z,7.50
2019-02-12T22:13:17.826Z,7.30
2019-02-12T22:18:23.911Z,7.30
2019-02-12T22:23:31.779Z,6.90
2019-02-12T22:28:39.034Z,7.40
2019-02-12T22:33:46.007Z,7.40
2019-02-12T22:38:53.828Z,7.30
2019-02-12T22:44:01.535Z,7.30
2019-02-12T22:49:08.665Z,7.50
2019-02-12T22:54:16.324Z,6.80
2019-02-12T22:59:24.323Z,6.80
2019-02-12T23:04:32.228Z,6.70
2019-02-12T23:09:40.196Z,7.10
2019-02-12T23:14:47.339Z,6.40
2019-02-12T23:19:55.759Z,6.40
2019-02-12T23:25:04.111Z,6.70
2019-02-12T23:30:12.372Z,7.10
2019-02-12T23:35:19.263Z,7.30
2019-02-12T23:40:26.882Z,8.10
2019-02-12T23:45:34.367Z,8.10
2019-02-12T23:50:43.531Z,8.20
2019-02-12T23:55:52.248Z,8.30
